Time,TemperatureF,DewpointF,PressureIn,WindDirection,WindDirectionDegrees,WindSpeedMPH,WindSpeedGustMPH,Humidity,HourlyPrecipIn,Conditions,Clouds,dailyrainin,SoftwareType,DateUTC
2013-02-19 00:04:00,50.9,28.0,29.90,WNW,298,0.0,-999.0,41,-99.99,,,0.00,weatherlink.com 1.10,2013-02-19 07:04:00,
2013-02-19 00:20:00,50.4,26.0,29.90,WNW,298,2.0,-999.0,39,-99.99,,,0.00,weatherlink.com 1.10,2013-02-19 07:20:00,
2013-02-19 00:34:00,51.5,26.0,29.90,WNW,298,0.0,-999.0,37,-99.99,,,0.00,weatherlink.com 1.10,2013-02-19 07:34:00,
2013-02-19 00:49:00,51.3,25.0,29.89,WNW,298,0.0,-999.0,36,-99.99,,,0.00,weatherlink.com 1.10,2013-02-19 07:49:00,
2013-02-19 01:04:00,50.8,26.0,29.89,WNW,298,0.0,-999.0,38,-99.99,,,0.00,weatherlink.com 1.10,2013-02-19 08:04:00,
2013-02-19 01:19:00,50.2,26.0,29.89,WNW,298,0.0,-999.0,39,-99.99,,,0.00,weatherlink.com 1.10,2013-02-19 08:19:00,
2013-02-19 01:34:00,49.8,26.0,29.90,WNW,298,0.0,-999.0,40,-99.99,,,0.00,weatherlink.com 1.10,2013-02-19 08:34:00,
2013-02-19 01:49:00,49.9,25.0,29.89,WNW,298,0.0,-999.0,38,-99.99,,,0.00,weatherlink.com 1.10,2013-02-19 08:49:00,
2013-02-19 02:04:00,50.3,25.0,29.88,WNW,298,0.0,-999.0,37,-99.99,,,0.00,weatherlink.com 1.10,2013-02-19 09:04:00,
2013-02-19 02:19:00,50.0,26.0,29.88,WNW,298,0.0,-999.0,40,-99.99,,,0.00,weatherlink.com 1.10,2013-02-19 09:19:00,
2013-02-19 02:35:00,49.7,26.0,29.87,WNW,298,0.0,-999.0,40,-99.99,,,0.00,weatherlink.com 1.10,2013-02-19 09:35:00,
2013-02-19 02:50:00,50.0,26.0,29.87,WNW,298,0.0,-999.0,39,-99.99,,,0.00,weatherlink.com 1.10,2013-02-19 09:50:00,
2013-02-19 03:04:00,49.9,26.0,29.86,WNW,298,0.0,-999.0,40,-99.99,,,0.00,weatherlink.com 1.10,2013-02-19 10:04:00,
2013-02-19 03:19:00,49.1,27.0,29.86,WNW,298,0.0,-999.0,42,-99.99,,,0.00,weatherlink.com 1.10,2013-02-19 10:19:00,
2013-02-19 03:34:00,48.9,27.0,29.86,WNW,298,1.0,-999.0,43,-99.99,,,0.00,weatherlink.com 1.10,2013-02-19 10:34:00,
2013-02-19 03:50:00,49.3,26.0,29.86,WNW,298,2.0,-999.0,40,-99.99,,,0.00,weatherlink.com 1.10,2013-02-19 10:50:00,
2013-02-19 04:05:00,51.1,25.0,29.86,WNW,298,0.0,-999.0,36,-99.99,,,0.00,weatherlink.com 1.10,2013-02-19 11:05:00,
2013-02-19 04:20:00,50.1,26.0,29.85,WNW,298,0.0,-999.0,39,-99.99,,,0.00,weatherlink.com 1.10,2013-02-19 11:20:00,
2013-02-19 04:35:00,49.5,26.0,29.85,WNW,298,0.0,-999.0,41,-99.99,,,0.00,weatherlink.com 1.10,2013-02-19 11:35:00,
2013-02-19 04:50:00,49.9,27.0,29.84,WNW,291,2.0,-999.0,41,-99.99,,,0.00,weatherlink.com 1.10,2013-02-19 11:50:00,
2013-02-19 05:05:00,49.4,28.0,29.84,WNW,291,0.0,-999.0,44,-99.99,,,0.00,weatherlink.com 1.10,2013-02-19 12:05:00,
2013-02-19 05:20:00,49.1,29.0,29.84,WNW,291,1.0,-999.0,46,-99.99,,,0.00,weatherlink.com 1.10,2013-02-19 12:20:00,
2013-02-19 05:35:00,47.7,29.0,29.84,WNW,291,0.0,-999.0,48,-99.99,,,0.00,weatherlink.com 1.10,2013-02-19 12:35:00,
2013-02-19 05:50:00,46.7,29.0,29.84,WNW,291,0.0,-999.0,51,-99.99,,,0.00,weatherlink.com 1.10,2013-02-19 12:50:00,
2013-02-19 06:05:00,45.9,29.0,29.84,WNW,291,0.0,-999.0,51,-99.99,,,0.00,weatherlink.com 1.10,2013-02-19 13:05:00,
2013-02-19 06:20:00,46.3,29.0,29.84,WNW,291,0.0,-999.0,51,-99.99,,,0.00,weatherlink.com 1.10,2013-02-19 13:20:00,
2013-02-19 06:35:00,46.3,29.0,29.84,WNW,291,0.0,-999.0,52,-99.99,,,0.00,weatherlink.com 1.10,2013-02-19 13:35:00,
2013-02-19 06:50:00,46.2,30.0,29.84,WNW,291,0.0,-999.0,53,-99.99,,,0.00,weatherlink.com 1.10,2013-02-19 13:50:00,
2013-02-19 07:05:00,47.1,31.0,29.83,WNW,291,0.0,-999.0,53,-99.99,,,0.00,weatherlink.com 1.10,2013-02-19 14:05:00,
2013-02-19 07:20:00,47.0,30.0,29.83,WNW,291,0.0,-999.0,53,-99.99,,,0.00,weatherlink.com 1.10,2013-02-19 14:20:00,
2013-02-19 07:35:00,47.0,30.0,29.84,WNW,286,5.0,-999.0,52,-99.99,,,0.00,weatherlink.com 1.10,2013-02-19 14:35:00,
2013-02-19 07:50:00,49.3,30.0,29.84,West,267,1.0,-999.0,48,-99.99,,,0.00,weatherlink.com 1.10,2013-02-19 14:50:00,
2013-02-19 08:05:00,50.5,31.0,29.84,WSW,244,2.0,-999.0,47,-99.99,,,0.00,weatherlink.com 1.10,2013-02-19 15:05:00,
2013-02-19 08:20:00,52.3,32.0,29.85,South,171,5.0,-999.0,46,-99.99,,,0.00,weatherlink.com 1.10,2013-02-19 15:20:00,
2013-02-19 08:35:00,54.1,32.0,29.85,South,177,6.0,-999.0,44,-99.99,,,0.00,weatherlink.com 1.10,2013-02-19 15:35:00,
2013-02-19 08:50:00,55.2,32.0,29.85,South,171,8.0,-999.0,42,-99.99,,,0.00,weatherlink.com 1.10,2013-02-19 15:50:00,
2013-02-19 09:05:00,56.7,32.0,29.85,South,171,6.0,-999.0,40,-99.99,,,0.00,weatherlink.com 1.10,2013-02-19 16:05:00,
2013-02-19 09:20:00,58.3,33.0,29.85,SE,142,13.0,-999.0,39,-99.99,,,0.00,weatherlink.com 1.10,2013-02-19 16:20:00,
2013-02-19 09:35:00,59.2,35.0,29.85,South,185,4.0,-999.0,40,-99.99,,,0.00,weatherlink.com 1.10,2013-02-19 16:35:00,
2013-02-19 09:51:00,59.9,35.0,29.85,SSW,193,8.0,-999.0,40,-99.99,,,0.00,weatherlink.com 1.10,2013-02-19 16:51:00,
2013-02-19 10:05:00,60.7,35.0,29.84,South,178,5.0,-999.0,38,-99.99,,,0.00,weatherlink.com 1.10,2013-02-19 17:05:00,
2013-02-19 10:21:00,61.8,34.0,29.84,SSE,167,5.0,-999.0,35,-99.99,,,0.00,weatherlink.com 1.10,2013-02-19 17:21:00,
2013-02-19 10:36:00,62.5,34.0,29.83,SSE,164,5.0,-999.0,34,-99.99,,,0.00,weatherlink.com 1.10,2013-02-19 17:36:00,
2013-02-19 10:51:00,63.5,31.0,29.83,SSW,201,2.0,-999.0,30,-99.99,,,0.00,weatherlink.com 1.10,2013-02-19 17:51:00,
2013-02-19 11:06:00,63.7,32.0,29.84,South,186,7.0,-999.0,30,-99.99,,,0.00,weatherlink.com 1.10,2013-02-19 18:06:00,
2013-02-19 11:21:00,63.6,31.0,29.84,South,188,9.0,-999.0,30,-99.99,,,0.00,weatherlink.com 1.10,2013-02-19 18:21:00,
2013-02-19 11:36:00,63.5,31.0,29.83,South,172,9.0,-999.0,30,-99.99,,,0.00,weatherlink.com 1.10,2013-02-19 18:36:00,
2013-02-19 11:51:00,64.4,31.0,29.83,SSW,201,7.0,-999.0,29,-99.99,,,0.00,weatherlink.com 1.10,2013-02-19 18:51:00,
2013-02-19 12:06:00,64.9,31.0,29.82,SSW,211,8.0,-999.0,28,-99.99,,,0.00,weatherlink.com 1.10,2013-02-19 19:06:00,
2013-02-19 12:21:00,64.8,31.0,29.82,SSW,205,4.0,-999.0,28,-99.99,,,0.00,weatherlink.com 1.10,2013-02-19 19:21:00,
2013-02-19 12:36:00,66.5,30.0,29.81,SSE,159,6.0,-999.0,26,-99.99,,,0.00,weatherlink.com 1.10,2013-02-19 19:36:00,
2013-02-19 12:51:00,65.9,32.0,29.80,South,188,4.0,-999.0,28,-99.99,,,0.00,weatherlink.com 1.10,2013-02-19 19:51:00,
2013-02-19 13:06:00,65.5,31.0,29.79,SW,221,4.0,-999.0,28,-99.99,,,0.00,weatherlink.com 1.10,2013-02-19 20:06:00,
2013-02-19 13:21:00,65.3,31.0,29.79,SSW,201,4.0,-999.0,28,-99.99,,,0.00,weatherlink.com 1.10,2013-02-19 20:21:00,
2013-02-19 13:36:00,65.4,32.0,29.78,SSW,211,7.0,-999.0,29,-99.99,,,0.00,weatherlink.com 1.10,2013-02-19 20:36:00,
2013-02-19 13:51:00,65.9,33.0,29.76,WSW,250,1.0,-999.0,29,-99.99,,,0.00,weatherlink.com 1.10,2013-02-19 20:51:00,
2013-02-19 14:06:00,66.1,32.0,29.77,WSW,253,2.0,-999.0,28,-99.99,,,0.00,weatherlink.com 1.10,2013-02-19 21:06:00,
2013-02-19 14:21:00,66.1,32.0,29.76,SW,215,1.0,-999.0,28,-99.99,,,0.00,weatherlink.com 1.10,2013-02-19 21:21:00,
2013-02-19 14:36:00,67.4,31.0,29.75,WSW,250,6.0,-999.0,26,-99.99,,,0.00,weatherlink.com 1.10,2013-02-19 21:36:00,
2013-02-19 14:51:00,67.8,32.0,29.73,WSW,252,3.0,-999.0,26,-99.99,,,0.00,weatherlink.com 1.10,2013-02-19 21:51:00,
2013-02-19 15:06:00,67.2,31.0,29.73,WSW,245,6.0,-999.0,26,-99.99,,,0.00,weatherlink.com 1.10,2013-02-19 22:06:00,
2013-02-19 15:21:00,68.3,31.0,29.72,South,191,7.0,-999.0,25,-99.99,,,0.00,weatherlink.com 1.10,2013-02-19 22:21:00,
2013-02-19 15:36:00,67.8,30.0,29.71,South,186,8.0,-999.0,24,-99.99,,,0.00,weatherlink.com 1.10,2013-02-19 22:36:00,
2013-02-19 15:51:00,66.9,30.0,29.71,SSW,196,6.0,-999.0,25,-99.99,,,0.00,weatherlink.com 1.10,2013-02-19 22:51:00,
2013-02-19 16:07:00,65.8,27.0,29.71,SSW,205,10.0,-999.0,23,-99.99,,,0.00,weatherlink.com 1.10,2013-02-19 23:07:00,
2013-02-19 16:21:00,66.0,26.0,29.71,SSW,213,8.0,-999.0,22,-99.99,,,0.00,weatherlink.com 1.10,2013-02-19 23:21:00,
2013-02-19 16:36:00,66.1,27.0,29.71,WSW,244,8.0,-999.0,23,-99.99,,,0.00,weatherlink.com 1.10,2013-02-19 23:36:00,
2013-02-19 16:52:00,63.6,30.0,29.71,WSW,246,5.0,-999.0,28,-99.99,,,0.00,weatherlink.com 1.10,2013-02-19 23:52:00,
2013-02-19 17:07:00,62.9,30.0,29.71,WSW,244,8.0,-999.0,29,-99.99,,,0.00,weatherlink.com 1.10,2013-02-20 00:07:00,
2013-02-19 17:21:00,61.5,31.0,29.71,SW,232,4.0,-999.0,32,-99.99,,,0.00,weatherlink.com 1.10,2013-02-20 00:21:00,
2013-02-19 17:36:00,60.8,31.0,29.70,SSW,192,9.0,-999.0,33,-99.99,,,0.00,weatherlink.com 1.10,2013-02-20 00:36:00,
2013-02-19 17:51:00,60.3,32.0,29.71,SW,234,2.0,-999.0,34,-99.99,,,0.00,weatherlink.com 1.10,2013-02-20 00:51:00,
2013-02-19 18:06:00,59.5,33.0,29.71,SW,236,3.0,-999.0,37,-99.99,,,0.00,weatherlink.com 1.10,2013-02-20 01:06:00,
2013-02-19 18:21:00,59.0,33.0,29.71,SSW,206,2.0,-999.0,38,-99.99,,,0.00,weatherlink.com 1.10,2013-02-20 01:21:00,
2013-02-19 18:36:00,58.7,34.0,29.71,SSW,198,2.0,-999.0,39,-99.99,,,0.00,weatherlink.com 1.10,2013-02-20 01:36:00,
2013-02-19 18:51:00,58.4,33.0,29.72,SSW,196,2.0,-999.0,39,-99.99,,,0.00,weatherlink.com 1.10,2013-02-20 01:51:00,
2013-02-19 19:06:00,58.1,33.0,29.72,SSW,207,0.0,-999.0,39,-99.99,,,0.00,weatherlink.com 1.10,2013-02-20 02:06:00,
2013-02-19 19:21:00,57.6,31.0,29.72,SSW,208,3.0,-999.0,37,-99.99,,,0.00,weatherlink.com 1.10,2013-02-20 02:21:00,
2013-02-19 19:36:00,57.3,32.0,29.72,SSW,209,2.0,-999.0,38,-99.99,,,0.00,weatherlink.com 1.10,2013-02-20 02:36:00,
2013-02-19 19:52:00,57.2,32.0,29.72,South,188,0.0,-999.0,39,-99.99,,,0.00,weatherlink.com 1.10,2013-02-20 02:52:00,
2013-02-19 20:06:00,56.9,33.0,29.72,SW,223,2.0,-999.0,40,-99.99,,,0.00,weatherlink.com 1.10,2013-02-20 03:06:00,
2013-02-19 20:22:00,56.8,33.0,29.72,SW,214,1.0,-999.0,41,-99.99,,,0.00,weatherlink.com 1.10,2013-02-20 03:22:00,
2013-02-19 20:36:00,56.5,33.0,29.71,SSW,194,3.0,-999.0,42,-99.99,,,0.00,weatherlink.com 1.10,2013-02-20 03:36:00,
2013-02-19 20:51:00,56.2,33.0,29.71,SSW,204,0.0,-999.0,42,-99.99,,,0.00,weatherlink.com 1.10,2013-02-20 03:51:00,
2013-02-19 21:07:00,56.0,34.0,29.71,SSW,198,1.0,-999.0,43,-99.99,,,0.00,weatherlink.com 1.10,2013-02-20 04:07:00,
2013-02-19 21:22:00,55.8,34.0,29.70,SSW,201,1.0,-999.0,44,-99.99,,,0.00,weatherlink.com 1.10,2013-02-20 04:22:00,
2013-02-19 21:37:00,55.3,34.0,29.71,SSW,210,3.0,-999.0,45,-99.99,,,0.00,weatherlink.com 1.10,2013-02-20 04:37:00,
2013-02-19 21:52:00,55.1,34.0,29.70,SSW,204,3.0,-999.0,46,-99.99,,,0.00,weatherlink.com 1.10,2013-02-20 04:52:00,
2013-02-19 22:07:00,54.8,34.0,29.70,SSW,211,9.0,-999.0,46,-99.99,,,0.00,weatherlink.com 1.10,2013-02-20 05:07:00,
2013-02-19 22:22:00,54.5,34.0,29.70,WSW,242,9.0,-999.0,46,-99.99,,,0.00,weatherlink.com 1.10,2013-02-20 05:22:00,
2013-02-19 22:37:00,54.1,34.0,29.70,SSW,210,6.0,-999.0,46,-99.99,,,0.00,weatherlink.com 1.10,2013-02-20 05:37:00,
2013-02-19 22:52:00,53.6,34.0,29.70,SW,222,4.0,-999.0,48,-99.99,,,0.00,weatherlink.com 1.10,2013-02-20 05:52:00,
2013-02-19 23:07:00,53.1,34.0,29.70,SSW,211,8.0,-999.0,49,-99.99,,,0.00,weatherlink.com 1.10,2013-02-20 06:07:00,
2013-02-19 23:22:00,53.1,33.0,29.70,SW,215,5.0,-999.0,47,-99.99,,,0.00,weatherlink.com 1.10,2013-02-20 06:22:00,
2013-02-19 23:37:00,53.0,33.0,29.70,SSW,200,7.0,-999.0,46,-99.99,,,0.00,weatherlink.com 1.10,2013-02-20 06:37:00,
2013-02-19 23:52:00,52.8,32.0,29.70,SW,217,5.0,-999.0,45,-99.99,,,0.00,weatherlink.com 1.10,2013-02-20 06:52:00,